• Join FlightAware (Why Join?)
  • Login
  • US Flag 
08:07PM EDT


 

Airport Tracker/Info


-or-


 

Live Flight TrackerFlight Track Log ✈ UAL1202 ✈ 02-Oct-2013 ✈ KPDX - KDEN

Flight Track Log - Related Links

Times and Time Zones

All times are in EDT time to prevent confusion due to time zone crossing. See the UAL1202 flight status page for this flight to view local times or setup timezone preferences in your user account.

Time Position Orientation Groundspeed Altitude Reporting Facility
EDT Latitude Longitude Course Direction KTS MPH feet Rate Location/Type
10:16AM 45.5800 -122.5603 113° Southeast 168 193 700  Level Seattle Center
10:17AM 45.5744 -122.5225 102° East 187 215 1,600 1,860 Climbing Seattle Center
10:18AM 45.5606 -122.4325 102° East 229 264 3,800 1,800 Climbing Seattle Center
10:18AM 45.5622 -122.4278 63° Northeast 206 237 3,900 2,040 Climbing Seattle Center
10:19AM 45.4758 -122.0822 145° Southeast  Level Estimated
10:19AM 45.5261 -122.3481 123° Southeast 272 313 5,900  Level Seattle Center
10:19AM 45.5244 -122.3414 110° East 249 287 6,100 2,520 Climbing Seattle Center
10:20AM 45.4376 -121.9111 108° East  Level Estimated
10:20AM 45.4689 -122.2675 137° Southeast 270 311 9,100  Level Seattle Center
10:21AM 45.3447 -121.7900 137° Southeast  Level FlightAware Approximate
10:21AM 45.4097 -122.1861 136° Southeast 290 334 10,600  Level Seattle Center
10:22AM 45.3066 -121.6193 113° Southeast  Level Estimated
10:22AM 45.3283 -122.0769 137° Southeast 331 381 13,400  Level Seattle Center
10:23AM 45.2586 -121.9786 135° Southeast 350 403 15,800 2,160 Climbing Seattle Center
10:24AM 45.2194 -121.8450 113° Southeast 377 434 17,900 1,980 Climbing Seattle Center
10:25AM 45.1842 -121.7011 109° East 385 443 19,900 1,980 Climbing Seattle Center
10:26AM 45.1442 -121.5508 111° Southeast 402 463 22,000 1,560 Climbing Seattle Center
10:32AM 44.8760 -120.5380 111° Southeast 474 545 31,400 1,500 Climbing FlightAware
10:33AM 44.8430 -120.4170 111° Southeast 468 539 32,500 1,500 Climbing FlightAware
10:34AM 44.8150 -120.3140 111° Southeast 468 539 33,300 1,200 Climbing FlightAware
10:34AM 44.7890 -120.2190 111° Southeast 470 541 33,900 780 Climbing FlightAware
10:35AM 44.7640 -120.1280 111° Southeast 474 545 34,200 660 Climbing FlightAware
10:35AM 44.7350 -120.0240 111° Southeast 478 550 34,700 780 Climbing FlightAware
10:36AM 44.7060 -119.9180 111° Southeast 481 554 35,200 780 Climbing FlightAware
10:37AM 44.6770 -119.8140 111° Southeast 482 555 35,700 780 Climbing FlightAware
10:37AM 44.6480 -119.7100 111° Southeast 482 555 36,200 840 Climbing FlightAware
10:38AM 44.6210 -119.6160 112° Southeast 478 550 36,700 660 Climbing FlightAware
10:38AM 44.5910 -119.5130 112° Southeast 479 551 37,000 180 Climbing FlightAware
10:39AM 44.5520 -119.3800 112° Southeast 480 552 37,000  Level FlightAware
10:40AM 44.5180 -119.2670 113° Southeast 482 555 37,000  Level FlightAware
10:40AM 44.4910 -119.1740 112° Southeast 482 555 37,000  Level FlightAware
10:41AM 44.4620 -119.0780 113° Southeast 480 552 37,000  Level FlightAware
10:42AM 44.4310 -118.9720 112° Southeast 479 551 37,000  Level FlightAware
10:42AM 44.3990 -118.8680 113° Southeast 478 550 37,000  Level FlightAware
10:43AM 44.3700 -118.7720 113° Southeast 477 549 37,000  Level FlightAware
10:43AM 44.3390 -118.6690 113° Southeast 475 547 37,000  Level FlightAware
10:44AM 44.3100 -118.5740 113° Southeast 476 548 37,000  Level FlightAware
10:44AM 44.2790 -118.4710 113° Southeast 476 548 37,000  Level FlightAware
10:45AM 44.2510 -118.3780 113° Southeast 478 550 37,000  Level FlightAware
10:46AM 44.2190 -118.2750 113° Southeast 479 551 37,000  Level FlightAware
10:46AM 44.1870 -118.1730 114° Southeast 479 551 37,000  Level FlightAware
10:47AM 44.1590 -118.0810 113° Southeast 478 550 37,000  Level FlightAware
10:47AM 44.1300 -117.9860 113° Southeast 475 547 37,000  Level FlightAware
10:48AM 44.0990 -117.8850 113° Southeast 474 545 37,000  Level FlightAware
10:49AM 44.0690 -117.7910 114° Southeast 474 545 37,000  Level FlightAware
10:49AM 44.0370 -117.6910 114° Southeast 474 545 37,000  Level FlightAware
10:50AM 44.0080 -117.5950 113° Southeast 474 545 37,000  Level FlightAware
10:50AM 43.9750 -117.4940 114° Southeast 477 549 37,000  Level FlightAware
10:51AM 43.9440 -117.3950 113° Southeast 477 549 37,000  Level FlightAware
10:51AM 43.9150 -117.3050 114° Southeast 477 549 37,000  Level FlightAware
10:52AM 43.8820 -117.2010 114° Southeast 479 551 37,000  Level FlightAware
10:53AM 43.8490 -117.0970 114° Southeast 480 552 37,000  Level FlightAware
10:53AM 43.8170 -116.9970 114° Southeast 481 554 37,000  Level FlightAware
10:54AM 43.7890 -116.9110 114° Southeast 481 554 37,000  Level FlightAware
10:54AM 43.7530 -116.8010 114° Southeast 480 552 37,000  Level FlightAware
10:55AM 43.7220 -116.7070 115° Southeast 480 552 37,000  Level FlightAware
10:55AM 43.6970 -116.6280 114° Southeast 480 552 37,000  Level FlightAware
10:56AM 43.6600 -116.5160 115° Southeast 479 551 37,000  Level FlightAware
10:57AM 43.6270 -116.4160 114° Southeast 479 551 37,000  Level FlightAware
10:57AM 43.5960 -116.3220 114° Southeast 479 551 37,000  Level FlightAware
10:58AM 43.5610 -116.2150 114° Southeast 482 555 37,000  Level FlightAware
10:58AM 43.5410 -116.1260 107° East 498 573 37,000  Level FlightAware
10:59AM 43.5200 -116.0040 103° East 498 573 37,000  Level FlightAware
11:00AM 43.5020 -115.9040 104° East 498 573 37,000  Level FlightAware
11:00AM 43.4820 -115.7940 104° East 498 573 37,000  Level FlightAware
11:01AM 43.4620 -115.6830 104° East 497 572 37,000  Level FlightAware
11:01AM 43.4420 -115.5730 104° East 497 572 37,000  Level FlightAware
11:02AM 43.4250 -115.4750 103° East 496 571 37,000  Level FlightAware
11:03AM 43.4030 -115.3590 105° East 496 571 37,000  Level FlightAware
11:03AM 43.3840 -115.2570 104° East 496 571 37,000  Level FlightAware
11:04AM 43.3650 -115.1530 104° East 496 571 37,000  Level FlightAware
11:04AM 43.3450 -115.0420 104° East 496 571 37,000  Level FlightAware
11:05AM 43.3270 -114.9450 104° East 496 571 37,000  Level FlightAware
11:05AM 43.3050 -114.8280 104° East 496 571 37,000  Level FlightAware
11:06AM 43.2840 -114.7220 105° East 496 571 37,000  Level FlightAware
11:07AM 43.2650 -114.6200 104° East 497 572 37,000  Level FlightAware
11:07AM 43.2440 -114.5090 105° East 497 572 37,000  Level FlightAware
11:08AM 43.2292 -114.4330 105° East 497 572 37,000  Level FlightAware ADS-B
11:08AM 43.2040 -114.3020 105° East 497 572 37,000  Level FlightAware
11:09AM 43.1815 -114.1872 105° East 496 571 37,000  Level FlightAware ADS-B
11:10AM 43.1430 -113.9900 105° East 495 570 37,000  Level FlightAware ADS-B
11:11AM 43.1240 -113.8930 105° East 494 568 37,000  Level FlightAware
11:11AM 43.1028 -113.7880 105° East 493 567 37,000  Level FlightAware ADS-B
11:12AM 43.0780 -113.6630 105° East 493 567 37,000  Level FlightAware
11:12AM 43.0711 -113.6290 106° East 493 567 37,000  Level FlightAware ADS-B
11:13AM 43.0426 -113.4880 105° East 492 566 37,000  Level FlightAware ADS-B
11:14AM 43.0163 -113.3580 105° East 491 565 37,000  Level FlightAware ADS-B
11:14AM 42.9957 -113.2560 105° East 492 566 37,000  Level FlightAware ADS-B
11:15AM 42.9771 -113.1650 106° East 491 565 37,000  Level FlightAware ADS-B
11:15AM 42.9645 -113.1039 106° East 491 565 37,000  Level FlightAware ADS-B
11:15AM 42.9585 -113.0750 106° East 491 565 37,000  Level FlightAware ADS-B
11:16AM 42.9418 -112.9944 106° East 492 566 37,000  Level FlightAware ADS-B
11:16AM 42.9397 -112.9840 105° East 492 566 37,000  Level FlightAware ADS-B
11:16AM 42.9196 -112.8870 106° East 492 566 37,000  Level FlightAware ADS-B
11:17AM 42.9008 -112.7980 106° East 491 565 37,000  Level FlightAware ADS-B
11:17AM 42.8788 -112.6930 106° East 491 565 37,000  Level FlightAware ADS-B
11:18AM 42.8553 -112.6050 110° East 482 555 37,000  Level FlightAware ADS-B
11:19AM 42.8170 -112.4850 113° Southeast 481 554 37,000  Level FlightAware
11:19AM 42.7810 -112.3720 113° Southeast 480 552 37,000  Level FlightAware
11:20AM 42.7450 -112.2600 114° Southeast 478 550 37,000  Level FlightAware
11:20AM 42.7131 -112.1610 114° Southeast 478 550 37,000  Level FlightAware ADS-B
11:21AM 42.6845 -112.0720 114° Southeast 477 549 37,000  Level FlightAware ADS-B
11:22AM 42.6493 -111.9640 114° Southeast 477 549 37,000  Level FlightAware ADS-B
11:22AM 42.6226 -111.8820 114° Southeast 477 549 37,000  Level FlightAware ADS-B
11:23AM 42.5770 -111.7420 114° Southeast 477 549 37,000  Level FlightAware ADS-B
11:24AM 42.5501 -111.6610 114° Southeast 478 550 37,000  Level FlightAware ADS-B
11:24AM 42.5230 -111.5780 114° Southeast 477 549 37,000  Level FlightAware ADS-B
11:25AM 42.4948 -111.4930 114° Southeast 477 549 37,000  Level FlightAware ADS-B
11:25AM 42.4490 -111.3540 114° Southeast 477 549 37,000  Level FlightAware
11:26AM 42.4180 -111.2620 115° Southeast 477 549 37,000  Level FlightAware
11:27AM 42.3870 -111.1690 114° Southeast 476 548 37,000  Level FlightAware
11:27AM 42.3570 -111.0790 114° Southeast 475 547 37,000  Level FlightAware
11:28AM 42.3300 -111.0000 115° Southeast 475 547 37,000  Level FlightAware
11:28AM 42.2930 -110.8880 114° Southeast 475 547 37,000  Level FlightAware
11:29AM 42.2440 -110.7420 114° Southeast 474 545 37,000  Level FlightAware
11:30AM 42.2220 -110.6770 115° Southeast 475 547 37,000  Level FlightAware
11:31AM 42.1940 -110.5940 114° Southeast 475 547 37,000  Level FlightAware
11:31AM 42.1680 -110.5160 114° Southeast 475 547 37,000  Level FlightAware
11:32AM 42.1330 -110.4100 114° Southeast 475 547 37,000  Level FlightAware
11:33AM 42.1060 -110.3270 114° Southeast 475 547 37,000  Level FlightAware
11:33AM 42.0780 -110.2420 114° Southeast 475 547 37,000  Level FlightAware
11:34AM 42.0510 -110.1590 114° Southeast 475 547 37,000  Level FlightAware
11:34AM 42.0230 -110.0740 114° Southeast 475 547 37,000  Level FlightAware
11:35AM 41.9950 -109.9920 115° Southeast 475 547 37,000  Level FlightAware
11:36AM 41.9680 -109.9090 114° Southeast 475 547 37,000  Level FlightAware
11:36AM 41.9400 -109.8260 114° Southeast 475 547 37,000  Level FlightAware
11:37AM 41.8150 -109.5100 118° Southeast 477 549 37,000  Level FlightAware
11:37AM 41.7820 -109.4180 116° Southeast 476 548 37,000  Level FlightAware
11:38AM 41.7490 -109.3260 116° Southeast 476 548 37,000  Level FlightAware
11:39AM 41.7150 -109.2310 116° Southeast 476 548 37,000  Level FlightAware
11:39AM 41.6840 -109.1440 115° Southeast 475 547 37,000  Level FlightAware
11:40AM 41.6500 -109.0510 116° Southeast 474 545 37,000  Level FlightAware
11:40AM 41.6180 -108.9630 116° Southeast 473 544 37,000  Level FlightAware
11:41AM 41.5830 -108.8660 116° Southeast 472 543 37,000  Level FlightAware
11:41AM 41.5490 -108.7720 116° Southeast 471 542 37,000  Level FlightAware
11:42AM 41.5160 -108.6800 116° Southeast 471 542 37,000  Level FlightAware
11:43AM 41.4850 -108.5970 116° Southeast 470 541 37,000  Level FlightAware
11:43AM 41.4510 -108.5040 116° Southeast 470 541 37,000  Level FlightAware
11:44AM 41.4150 -108.4080 117° Southeast 470 541 37,000  Level FlightAware
11:44AM 41.3810 -108.3230 118° Southeast 470 541 37,000  Level FlightAware
11:45AM 41.3440 -108.2280 117° Southeast 470 541 37,000  Level FlightAware
11:46AM 41.3090 -108.1370 117° Southeast 470 541 37,000  Level FlightAware
11:46AM 41.2760 -108.0510 117° Southeast 470 541 37,000  Level FlightAware
11:47AM 41.2440 -107.9700 118° Southeast 469 540 37,000  Level FlightAware
11:47AM 41.2060 -107.8730 117° Southeast 465 535 37,000  Level FlightAware
11:48AM 41.1710 -107.7840 118° Southeast 463 533 37,000  Level FlightAware
11:48AM 41.1370 -107.6970 117° Southeast 461 531 37,000  Level FlightAware
11:49AM 41.0990 -107.6020 118° Southeast 459 528 37,000  Level FlightAware
11:50AM 41.0690 -107.5270 118° Southeast 458 527 37,000  Level FlightAware
11:50AM 41.0320 -107.4310 117° Southeast 458 527 37,000  Level FlightAware
11:51AM 40.9970 -107.3440 118° Southeast 458 527 37,000  Level FlightAware
11:51AM 40.9650 -107.2640 118° Southeast 459 528 37,000 -360 Level FlightAware
11:52AM 40.9290 -107.1740 118° Southeast 461 531 36,600 -840 Descending FlightAware
11:53AM 40.8930 -107.0850 118° Southeast 465 535 36,000 -1,020 Descending FlightAware
11:53AM 40.8600 -107.0040 118° Southeast 468 539 35,500 -960 Descending FlightAware
11:54AM 40.8280 -106.9240 118° Southeast 472 543 35,000 -960 Descending FlightAware
11:54AM 40.7950 -106.8430 118° Southeast 472 543 34,500 -960 Descending FlightAware
11:55AM 40.7600 -106.7570 118° Southeast 470 541 34,000 -1,020 Descending FlightAware
11:55AM 40.7190 -106.6560 118° Southeast 471 542 33,300 -1,080 Descending FlightAware
11:56AM 40.6840 -106.5710 118° Southeast 473 544 32,700 -960 Descending FlightAware
11:57AM 40.6460 -106.4790 119° Southeast 471 542 32,200 -900 Descending FlightAware
11:57AM 40.6130 -106.3990 118° Southeast 472 543 31,700 -960 Descending FlightAware
11:58AM 40.5800 -106.3170 118° Southeast 472 543 31,200 -1,380 Descending FlightAware
11:58AM 40.5420 -106.2260 119° Southeast 469 540 30,200 -2,280 Descending FlightAware
11:59AM 40.5070 -106.1430 119° Southeast 469 540 28,600 -2,520 Descending FlightAware
11:59AM 40.4660 -106.0430 118° Southeast 461 531 27,100 -1,680 Descending FlightAware
12:00PM 40.4390 -105.9550 112° Southeast 434 499 26,500 -1,860 Descending FlightAware
12:01PM 40.4230 -105.8580 102° East 429 494 24,900 -2,580 Descending FlightAware
12:01PM 40.4080 -105.7630 102° East 418 481 23,300 -2,580 Descending FlightAware
12:02PM 40.3950 -105.6830 102° East 410 472 21,900 -2,220 Descending FlightAware
12:02PM 40.3820 -105.5980 101° East 394 453 20,800 -1,920 Descending FlightAware
12:03PM 40.3690 -105.5140 101° East 376 433 19,600 -2,160 Descending FlightAware
12:03PM 40.3630 -105.4850 105° East 374 430 19,000 -2,580 Descending FlightAware
12:04PM 40.3530 -105.4620 120° Southeast 369 425 18,500 -2,400 Descending FlightAware
12:04PM 40.3240 -105.4070 125° Southeast 368 423 17,400 -2,160 Descending FlightAware
12:04PM 40.3200 -105.3900 107° East 369 425 17,100 -1,680 Descending FlightAware
12:04PM 40.3180 -105.3690 97° East 367 422 16,900 -1,800 Descending FlightAware
12:05PM 40.3260 -105.3200 78° East 361 415 16,200 -1,920 Descending FlightAware
12:05PM 40.3480 -105.2440 69° East 352 405 15,000 -1,260 Descending FlightAware
12:06PM 40.3670 -105.1760 70° East 315 362 14,700 -720 Descending FlightAware
12:07PM 40.3860 -105.1150 68° East 288 331 14,200 -960 Descending FlightAware
12:07PM 40.4010 -105.0680 67° East 275 316 13,700 -1,200 Descending FlightAware
12:07PM 40.4110 -105.0300 71° East 269 310 13,100 -900 Descending FlightAware
12:08PM 40.4120 -104.9800 88° East 260 299 12,900 -180 Descending FlightAware
12:09PM 40.4130 -104.9190 89° East 262 302 12,900  Level FlightAware
12:09PM 40.4140 -104.8660 89° East 261 300 12,900  Level FlightAware
12:10PM 40.4030 -104.8080 104° East 251 289 12,900  Level FlightAware
12:10PM 40.3960 -104.8020 147° Southeast 250 288 12,900 -720 Level FlightAware
12:11PM 40.3600 -104.7800 155° Southeast 250 288 12,400 -1,020 Descending FlightAware
12:11PM 40.3020 -104.7450 155° Southeast 254 292 11,400 -960 Descending FlightAware
12:12PM 40.2580 -104.7180 155° Southeast 254 292 10,900 -480 Descending FlightAware
12:13PM 40.2250 -104.6970 154° Southeast 252 290 10,900 -840 Level FlightAware
12:13PM 40.2020 -104.6860 160° South 255 293 10,200 -1,740 Descending FlightAware
12:13PM 40.1880 -104.6840 174° South 257 296 10,000 -600 Descending FlightAware
12:13PM 40.1650 -104.6840 180° South 258 297 9,900 -240 Descending FlightAware
12:14PM 40.1490 -104.6840 180° South 259 298 9,900 -960 Level FlightAware
12:14PM 40.1120 -104.6840 180° South 253 291 9,200 -1,320 Descending FlightAware
12:15PM 40.0910 -104.6850 182° South 247 284 8,800 -1,200 Descending FlightAware
12:15PM 40.0660 -104.6850 180° South 239 275 8,400 -1,140 Descending FlightAware
12:15PM 40.0490 -104.6850 180° South 235 270 8,100 -1,380 Descending FlightAware
12:15PM 40.0320 -104.6850 180° South 232 267 7,700 -1,200 Descending FlightAware
12:16PM 40.0060 -104.6860 182° South 225 259 7,300 -1,200 Descending FlightAware
12:16PM 39.9880 -104.6860 180° South 220 253 6,900 -1,200 Descending FlightAware
12:17PM 39.9650 -104.6860 180° South 208 239 6,500 -1,080 Descending FlightAware
12:17PM 39.9440 -104.6860 180° South 188 216 6,100 -1,020 Descending FlightAware
12:17PM 39.9270 -104.6860 180° South 174 200 5,800 -780 Descending FlightAware
12:18PM 39.9110 -104.6870 183° South 172 198 5,600 -840 Descending FlightAware
12:18PM 39.8930 -104.6870 180° South 168 193 5,200 -1,080 Descending FlightAware
12:18PM 39.8800 -104.6870 180° South 100 115 -15,600 Descending FlightAware